Terminal Aerodrome Forecast
Issued by NWS

Home | Current Version | Previous Version | Text Only | Print | Product List | Glossary On
Versions: 1 2 3 4 5 6 7 8 9 10 11 12 13 14 15 16
000
FTPA31 PHFO 291744
TAFHJR
TAF
PHJR 291744Z 2918/3018 05009G17KT P6SM VCSH FEW045 BKN060
     FM292200 29009KT P6SM VCSH FEW025 SCT045 BKN060
     FM300600 VRB03KT P6SM VCSH FEW045 BKN060=

USA.gov is the U.S. government's official web portal to all federal, state and local government web resources and services.